createdAt,value
2016-11-28T22:01:01.400Z,22.90
2016-11-28T22:03:34.326Z,22.89
2016-11-28T22:06:16.494Z,23.85
2016-11-28T22:09:14.839Z,25.02
2016-11-28T22:12:06.847Z,24.98
2016-11-28T22:15:02.628Z,24.29
2016-11-28T22:17:58.535Z,23.68
2016-11-28T22:20:54.401Z,23.24
2016-11-28T22:23:50.311Z,22.92
2016-11-28T22:26:46.338Z,22.67
2016-11-28T22:29:42.372Z,22.50
2016-11-28T22:32:38.497Z,22.35
2016-11-28T22:35:34.632Z,22.25
2016-11-28T22:38:30.541Z,22.17
2016-11-28T22:41:26.526Z,22.09
2016-11-28T22:44:22.596Z,22.01
2016-11-28T22:47:18.621Z,21.94
2016-11-28T22:50:14.822Z,21.87
2016-11-28T22:53:10.819Z,21.82
2016-11-28T22:56:06.894Z,21.78
2016-11-28T22:59:03.020Z,21.75
2016-11-28T23:01:59.081Z,21.73
2016-11-28T23:04:55.121Z,21.71
2016-11-28T23:07:51.228Z,21.71
2016-11-28T23:10:47.284Z,21.70
2016-11-28T23:13:43.373Z,21.69
2016-11-28T23:16:39.482Z,21.69
2016-11-28T23:19:35.607Z,21.69
2016-11-28T23:22:31.655Z,21.69
2016-11-28T23:25:27.713Z,21.69
2016-11-28T23:28:23.664Z,21.68
2016-11-28T23:31:19.709Z,21.68
2016-11-28T23:34:15.791Z,21.67
2016-11-28T23:37:11.791Z,21.67
2016-11-28T23:40:07.891Z,21.67
2016-11-28T23:43:04.009Z,21.66
2016-11-28T23:46:00.027Z,21.66
2016-11-28T23:48:56.133Z,21.66
2016-11-28T23:51:52.242Z,21.66
2016-11-28T23:54:48.277Z,21.67
2016-11-28T23:57:44.345Z,21.66
